sensor_id;sensor_type;location;lat;lon;timestamp;temperature;humidity
5675;DHT22;2860;54.284;10.158;2023-02-28T00:00:43;3.00;99.90
5675;DHT22;2860;54.284;10.158;2023-02-28T00:03:08;3.00;99.90
5675;DHT22;2860;54.284;10.158;2023-02-28T00:05:34;3.00;99.90
5675;DHT22;2860;54.284;10.158;2023-02-28T00:08:00;3.00;99.90
5675;DHT22;2860;54.284;10.158;2023-02-28T00:10:27;3.00;99.90
5675;DHT22;2860;54.284;10.158;2023-02-28T00:12:55;3.00;99.90
5675;DHT22;2860;54.284;10.158;2023-02-28T00:15:22;3.00;99.90
5675;DHT22;2860;54.284;10.158;2023-02-28T00:17:48;3.00;99.90
5675;DHT22;2860;54.284;10.158;2023-02-28T00:20:14;2.90;99.90
5675;DHT22;2860;54.284;10.158;2023-02-28T00:22:42;2.90;99.90
5675;DHT22;2860;54.284;10.158;2023-02-28T00:25:09;2.90;99.90
5675;DHT22;2860;54.284;10.158;2023-02-28T00:27:36;2.90;99.90
5675;DHT22;2860;54.284;10.158;2023-02-28T00:30:03;2.90;99.90
5675;DHT22;2860;54.284;10.158;2023-02-28T00:32:29;2.90;99.90
5675;DHT22;2860;54.284;10.158;2023-02-28T00:34:55;2.90;99.90
5675;DHT22;2860;54.284;10.158;2023-02-28T00:37:20;2.90;99.90
5675;DHT22;2860;54.284;10.158;2023-02-28T00:39:46;2.90;99.90
5675;DHT22;2860;54.284;10.158;2023-02-28T00:42:11;2.90;99.90
5675;DHT22;2860;54.284;10.158;2023-02-28T00:44:37;2.90;99.90
5675;DHT22;2860;54.284;10.158;2023-02-28T00:47:02;2.90;99.90
5675;DHT22;2860;54.284;10.158;2023-02-28T00:49:28;2.90;99.90
5675;DHT22;2860;54.284;10.158;2023-02-28T00:51:55;2.80;99.90
5675;DHT22;2860;54.284;10.158;2023-02-28T00:54:21;2.80;99.90
5675;DHT22;2860;54.284;10.158;2023-02-28T00:56:47;2.80;99.90
5675;DHT22;2860;54.284;10.158;2023-02-28T00:59:15;2.80;99.90
5675;DHT22;2860;54.284;10.158;2023-02-28T01:01:41;2.80;99.90
5675;DHT22;2860;54.284;10.158;2023-02-28T01:04:07;2.80;99.90
5675;DHT22;2860;54.284;10.158;2023-02-28T01:06:32;2.80;99.90
5675;DHT22;2860;54.284;10.158;2023-02-28T01:08:59;2.80;99.90
5675;DHT22;2860;54.284;10.158;2023-02-28T01:11:25;2.80;99.90
5675;DHT22;2860;54.284;10.158;2023-02-28T01:13:51;2.80;99.90
5675;DHT22;2860;54.284;10.158;2023-02-28T01:16:17;2.80;99.90
5675;DHT22;2860;54.284;10.158;2023-02-28T01:18:42;2.80;99.90
5675;DHT22;2860;54.284;10.158;2023-02-28T01:21:11;2.80;99.90
5675;DHT22;2860;54.284;10.158;2023-02-28T01:23:38;2.80;99.90
5675;DHT22;2860;54.284;10.158;2023-02-28T01:26:10;2.80;99.90
5675;DHT22;2860;54.284;10.158;2023-02-28T01:28:36;2.80;99.90
5675;DHT22;2860;54.284;10.158;2023-02-28T01:31:01;2.80;99.90
5675;DHT22;2860;54.284;10.158;2023-02-28T01:33:27;2.80;99.90
5675;DHT22;2860;54.284;10.158;2023-02-28T01:36:09;2.80;99.90
5675;DHT22;2860;54.284;10.158;2023-02-28T01:38:35;2.80;99.90
5675;DHT22;2860;54.284;10.158;2023-02-28T01:41:00;2.70;99.90
5675;DHT22;2860;54.284;10.158;2023-02-28T01:43:29;2.80;99.90
5675;DHT22;2860;54.284;10.158;2023-02-28T01:45:56;2.70;99.90
5675;DHT22;2860;54.284;10.158;2023-02-28T01:48:29;2.70;99.90
5675;DHT22;2860;54.284;10.158;2023-02-28T01:50:59;2.70;99.90
5675;DHT22;2860;54.284;10.158;2023-02-28T01:53:33;2.60;99.90
5675;DHT22;2860;54.284;10.158;2023-02-28T01:56:00;2.60;99.90
5675;DHT22;2860;54.284;10.158;2023-02-28T01:58:25;2.60;99.90
5675;DHT22;2860;54.284;10.158;2023-02-28T02:00:51;2.50;99.90
5675;DHT22;2860;54.284;10.158;2023-02-28T02:03:18;2.50;99.90
5675;DHT22;2860;54.284;10.158;2023-02-28T02:05:45;2.40;99.90
5675;DHT22;2860;54.284;10.158;2023-02-28T02:08:20;2.20;99.90
5675;DHT22;2860;54.284;10.158;2023-02-28T02:10:49;2.10;99.90
5675;DHT22;2860;54.284;10.158;2023-02-28T02:13:25;2.10;99.90
5675;DHT22;2860;54.284;10.158;2023-02-28T02:27:23;1.50;99.90
5675;DHT22;2860;54.284;10.158;2023-02-28T02:33:00;1.40;99.90
5675;DHT22;2860;54.284;10.158;2023-02-28T02:46:42;1.30;99.90
5675;DHT22;2860;54.284;10.158;2023-02-28T02:49:15;1.40;99.90
5675;DHT22;2860;54.284;10.158;2023-02-28T02:51:42;1.40;99.90
5675;DHT22;2860;54.284;10.158;2023-02-28T02:54:22;1.40;99.90
5675;DHT22;2860;54.284;10.158;2023-02-28T02:56:53;1.50;99.90
5675;DHT22;2860;54.284;10.158;2023-02-28T02:59:21;1.50;99.90
5675;DHT22;2860;54.284;10.158;2023-02-28T03:01:51;1.50;99.90
5675;DHT22;2860;54.284;10.158;2023-02-28T03:04:21;1.50;99.90
5675;DHT22;2860;54.284;10.158;2023-02-28T03:06:48;1.50;99.90
5675;DHT22;2860;54.284;10.158;2023-02-28T03:09:15;1.50;99.90
5675;DHT22;2860;54.284;10.158;2023-02-28T03:11:41;1.50;99.90
5675;DHT22;2860;54.284;10.158;2023-02-28T03:14:40;1.40;99.90
5675;DHT22;2860;54.284;10.158;2023-02-28T03:17:24;1.40;99.90
5675;DHT22;2860;54.284;10.158;2023-02-28T03:22:52;1.40;99.90
5675;DHT22;2860;54.284;10.158;2023-02-28T03:25:27;1.40;99.90
5675;DHT22;2860;54.284;10.158;2023-02-28T03:28:27;1.30;99.90
5675;DHT22;2860;54.284;10.158;2023-02-28T03:30:59;1.30;99.90
5675;DHT22;2860;54.284;10.158;2023-02-28T03:33:30;1.30;99.90
5675;DHT22;2860;54.284;10.158;2023-02-28T03:36:01;1.20;99.90
5675;DHT22;2860;54.284;10.158;2023-02-28T03:38:35;1.10;99.90
5675;DHT22;2860;54.284;10.158;2023-02-28T03:41:14;1.00;99.90
5675;DHT22;2860;54.284;10.158;2023-02-28T03:43:45;0.90;99.90
5675;DHT22;2860;54.284;10.158;2023-02-28T03:46:16;0.90;99.90
5675;DHT22;2860;54.284;10.158;2023-02-28T03:48:48;0.70;99.90
5675;DHT22;2860;54.284;10.158;2023-02-28T03:51:18;0.60;99.90
5675;DHT22;2860;54.284;10.158;2023-02-28T03:53:50;0.60;99.90
5675;DHT22;2860;54.284;10.158;2023-02-28T03:56:24;0.50;99.90
5675;DHT22;2860;54.284;10.158;2023-02-28T03:59:06;0.40;99.90
5675;DHT22;2860;54.284;10.158;2023-02-28T04:01:38;0.30;99.90
5675;DHT22;2860;54.284;10.158;2023-02-28T04:04:07;0.30;99.90
5675;DHT22;2860;54.284;10.158;2023-02-28T04:06:33;0.20;99.90
5675;DHT22;2860;54.284;10.158;2023-02-28T04:08:59;0.20;99.90
5675;DHT22;2860;54.284;10.158;2023-02-28T04:11:37;0.10;99.90
5675;DHT22;2860;54.284;10.158;2023-02-28T04:14:04;0.00;99.90
5675;DHT22;2860;54.284;10.158;2023-02-28T04:16:31;-0.10;99.90
5675;DHT22;2860;54.284;10.158;2023-02-28T04:18:57;-0.10;99.90
5675;DHT22;2860;54.284;10.158;2023-02-28T04:21:29;-0.20;99.90
5675;DHT22;2860;54.284;10.158;2023-02-28T04:23:55;-0.20;99.90
5675;DHT22;2860;54.284;10.158;2023-02-28T04:26:32;-0.20;99.90
5675;DHT22;2860;54.284;10.158;2023-02-28T04:28:58;-0.30;99.90
5675;DHT22;2860;54.284;10.158;2023-02-28T04:31:24;-0.30;99.90
5675;DHT22;2860;54.284;10.158;2023-02-28T04:33:49;-0.30;99.90
5675;DHT22;2860;54.284;10.158;2023-02-28T04:36:15;-0.30;99.90
5675;DHT22;2860;54.284;10.158;2023-02-28T04:38:43;-0.40;99.90
5675;DHT22;2860;54.284;10.158;2023-02-28T04:41:09;-0.40;99.90
5675;DHT22;2860;54.284;10.158;2023-02-28T04:43:34;-0.50;99.90
5675;DHT22;2860;54.284;10.158;2023-02-28T04:46:02;-0.50;99.90
5675;DHT22;2860;54.284;10.158;2023-02-28T04:48:28;-0.60;99.90
5675;DHT22;2860;54.284;10.158;2023-02-28T04:50:55;-0.60;99.90
5675;DHT22;2860;54.284;10.158;2023-02-28T04:53:21;-0.60;99.90
5675;DHT22;2860;54.284;10.158;2023-02-28T04:55:46;-0.60;99.90
5675;DHT22;2860;54.284;10.158;2023-02-28T04:58:13;-0.70;99.90
5675;DHT22;2860;54.284;10.158;2023-02-28T05:00:38;-0.70;99.90
5675;DHT22;2860;54.284;10.158;2023-02-28T05:03:04;-0.80;99.90
5675;DHT22;2860;54.284;10.158;2023-02-28T05:05:30;-0.80;99.90
5675;DHT22;2860;54.284;10.158;2023-02-28T05:07:55;-0.90;99.90
5675;DHT22;2860;54.284;10.158;2023-02-28T05:10:22;-0.90;99.90
5675;DHT22;2860;54.284;10.158;2023-02-28T05:12:48;-0.90;99.90
5675;DHT22;2860;54.284;10.158;2023-02-28T05:15:15;-0.90;99.90
5675;DHT22;2860;54.284;10.158;2023-02-28T05:17:40;-1.00;99.90
5675;DHT22;2860;54.284;10.158;2023-02-28T05:20:07;-1.00;99.90
5675;DHT22;2860;54.284;10.158;2023-02-28T05:22:36;-1.10;99.90
5675;DHT22;2860;54.284;10.158;2023-02-28T05:25:03;-1.10;99.90
5675;DHT22;2860;54.284;10.158;2023-02-28T05:27:28;-1.20;99.90
5675;DHT22;2860;54.284;10.158;2023-02-28T05:29:54;-1.20;99.90
5675;DHT22;2860;54.284;10.158;2023-02-28T05:32:20;-1.10;99.90
5675;DHT22;2860;54.284;10.158;2023-02-28T05:34:45;-1.10;99.90
5675;DHT22;2860;54.284;10.158;2023-02-28T05:37:12;-1.20;99.90
5675;DHT22;2860;54.284;10.158;2023-02-28T05:39:38;-1.20;99.90
5675;DHT22;2860;54.284;10.158;2023-02-28T05:42:04;-1.20;99.90
5675;DHT22;2860;54.284;10.158;2023-02-28T05:44:30;-1.30;99.90
5675;DHT22;2860;54.284;10.158;2023-02-28T05:46:55;-1.30;99.90
5675;DHT22;2860;54.284;10.158;2023-02-28T05:49:21;-1.30;99.90
5675;DHT22;2860;54.284;10.158;2023-02-28T05:51:46;-1.30;99.90
5675;DHT22;2860;54.284;10.158;2023-02-28T05:54:12;-1.30;99.90
5675;DHT22;2860;54.284;10.158;2023-02-28T05:56:38;-1.30;99.90
5675;DHT22;2860;54.284;10.158;2023-02-28T05:59:05;-1.40;99.90
5675;DHT22;2860;54.284;10.158;2023-02-28T06:01:37;-1.50;99.90
5675;DHT22;2860;54.284;10.158;2023-02-28T06:04:05;-1.50;99.90
5675;DHT22;2860;54.284;10.158;2023-02-28T06:06:31;-1.50;99.90
5675;DHT22;2860;54.284;10.158;2023-02-28T06:08:59;-1.50;99.90
5675;DHT22;2860;54.284;10.158;2023-02-28T06:11:26;-1.50;99.90
5675;DHT22;2860;54.284;10.158;2023-02-28T06:13:56;-1.50;99.90
5675;DHT22;2860;54.284;10.158;2023-02-28T06:16:23;-1.50;99.90
5675;DHT22;2860;54.284;10.158;2023-02-28T06:18:49;-1.50;99.90
5675;DHT22;2860;54.284;10.158;2023-02-28T06:21:14;-1.50;99.90
5675;DHT22;2860;54.284;10.158;2023-02-28T06:23:40;-1.60;99.90
5675;DHT22;2860;54.284;10.158;2023-02-28T06:26:05;-1.60;99.90
5675;DHT22;2860;54.284;10.158;2023-02-28T06:28:31;-1.50;99.90
5675;DHT22;2860;54.284;10.158;2023-02-28T06:30:57;-1.50;99.90
5675;DHT22;2860;54.284;10.158;2023-02-28T06:33:23;-1.50;99.90
5675;DHT22;2860;54.284;10.158;2023-02-28T06:35:51;-1.50;99.90
5675;DHT22;2860;54.284;10.158;2023-02-28T06:38:17;-1.50;99.90
5675;DHT22;2860;54.284;10.158;2023-02-28T06:40:43;-1.50;99.90
5675;DHT22;2860;54.284;10.158;2023-02-28T06:43:09;-1.50;99.90
5675;DHT22;2860;54.284;10.158;2023-02-28T06:45:42;-1.50;99.90
5675;DHT22;2860;54.284;10.158;2023-02-28T06:48:07;-1.50;99.90
5675;DHT22;2860;54.284;10.158;2023-02-28T06:50:33;-1.50;99.90
5675;DHT22;2860;54.284;10.158;2023-02-28T06:52:58;-1.40;99.90
5675;DHT22;2860;54.284;10.158;2023-02-28T06:55:24;-1.40;99.90
5675;DHT22;2860;54.284;10.158;2023-02-28T06:57:49;-1.40;99.90
5675;DHT22;2860;54.284;10.158;2023-02-28T07:00:16;-1.30;99.90
5675;DHT22;2860;54.284;10.158;2023-02-28T07:02:41;-1.30;99.90
5675;DHT22;2860;54.284;10.158;2023-02-28T07:05:07;-1.20;99.90
5675;DHT22;2860;54.284;10.158;2023-02-28T07:07:33;-1.10;99.90
5675;DHT22;2860;54.284;10.158;2023-02-28T07:09:59;-1.00;99.90
5675;DHT22;2860;54.284;10.158;2023-02-28T07:12:25;-1.00;99.90
5675;DHT22;2860;54.284;10.158;2023-02-28T07:14:50;-0.90;99.90
5675;DHT22;2860;54.284;10.158;2023-02-28T07:17:16;-0.80;99.90
5675;DHT22;2860;54.284;10.158;2023-02-28T07:19:41;-0.80;99.90
5675;DHT22;2860;54.284;10.158;2023-02-28T07:22:07;-0.70;99.90
5675;DHT22;2860;54.284;10.158;2023-02-28T07:24:32;-0.70;99.90
5675;DHT22;2860;54.284;10.158;2023-02-28T07:26:58;-0.60;99.90
5675;DHT22;2860;54.284;10.158;2023-02-28T07:29:24;-0.50;99.90
5675;DHT22;2860;54.284;10.158;2023-02-28T07:31:50;-0.40;99.90
5675;DHT22;2860;54.284;10.158;2023-02-28T07:34:18;-0.30;99.90
5675;DHT22;2860;54.284;10.158;2023-02-28T07:36:44;-0.20;99.90
5675;DHT22;2860;54.284;10.158;2023-02-28T07:39:09;-0.10;99.90
5675;DHT22;2860;54.284;10.158;2023-02-28T07:41:35;0.00;99.90
5675;DHT22;2860;54.284;10.158;2023-02-28T07:44:04;0.10;99.90
5675;DHT22;2860;54.284;10.158;2023-02-28T07:46:30;0.20;99.90
5675;DHT22;2860;54.284;10.158;2023-02-28T07:49:00;0.30;99.90
5675;DHT22;2860;54.284;10.158;2023-02-28T07:51:28;0.40;99.90
5675;DHT22;2860;54.284;10.158;2023-02-28T07:53:54;0.50;99.90
5675;DHT22;2860;54.284;10.158;2023-02-28T07:56:19;0.70;99.90
5675;DHT22;2860;54.284;10.158;2023-02-28T07:58:45;0.80;99.90
5675;DHT22;2860;54.284;10.158;2023-02-28T08:01:11;0.90;99.90
5675;DHT22;2860;54.284;10.158;2023-02-28T08:03:37;1.00;99.90
5675;DHT22;2860;54.284;10.158;2023-02-28T08:06:04;1.10;99.90
5675;DHT22;2860;54.284;10.158;2023-02-28T08:08:30;1.20;99.90
5675;DHT22;2860;54.284;10.158;2023-02-28T08:10:59;1.30;99.90
5675;DHT22;2860;54.284;10.158;2023-02-28T08:13:25;1.40;99.90
5675;DHT22;2860;54.284;10.158;2023-02-28T08:15:52;1.50;99.90
5675;DHT22;2860;54.284;10.158;2023-02-28T08:18:18;1.60;99.90
5675;DHT22;2860;54.284;10.158;2023-02-28T08:20:44;1.80;99.90
5675;DHT22;2860;54.284;10.158;2023-02-28T08:23:09;1.80;99.90
5675;DHT22;2860;54.284;10.158;2023-02-28T08:25:35;2.00;99.90
5675;DHT22;2860;54.284;10.158;2023-02-28T08:28:00;2.10;99.90
5675;DHT22;2860;54.284;10.158;2023-02-28T08:30:26;2.20;99.90
5675;DHT22;2860;54.284;10.158;2023-02-28T08:32:51;2.30;99.90
5675;DHT22;2860;54.284;10.158;2023-02-28T08:35:17;2.50;99.90
5675;DHT22;2860;54.284;10.158;2023-02-28T08:37:42;2.60;99.90
5675;DHT22;2860;54.284;10.158;2023-02-28T08:40:08;2.70;99.90
5675;DHT22;2860;54.284;10.158;2023-02-28T08:42:34;2.80;99.90
5675;DHT22;2860;54.284;10.158;2023-02-28T08:45:00;3.00;99.90
5675;DHT22;2860;54.284;10.158;2023-02-28T08:47:25;3.10;99.90
5675;DHT22;2860;54.284;10.158;2023-02-28T08:49:51;3.30;99.90
5675;DHT22;2860;54.284;10.158;2023-02-28T08:52:16;3.40;99.90
5675;DHT22;2860;54.284;10.158;2023-02-28T08:54:42;3.50;99.90
5675;DHT22;2860;54.284;10.158;2023-02-28T08:57:07;3.60;99.90
5675;DHT22;2860;54.284;10.158;2023-02-28T08:59:33;3.80;99.90
5675;DHT22;2860;54.284;10.158;2023-02-28T09:01:58;3.90;99.90
5675;DHT22;2860;54.284;10.158;2023-02-28T09:04:24;4.00;99.90
5675;DHT22;2860;54.284;10.158;2023-02-28T09:06:50;4.10;99.90
5675;DHT22;2860;54.284;10.158;2023-02-28T09:09:16;4.30;99.90
5675;DHT22;2860;54.284;10.158;2023-02-28T09:11:41;4.40;99.90
5675;DHT22;2860;54.284;10.158;2023-02-28T09:14:07;4.50;99.90
5675;DHT22;2860;54.284;10.158;2023-02-28T09:16:34;4.50;99.90
5675;DHT22;2860;54.284;10.158;2023-02-28T09:19:00;4.60;99.90
5675;DHT22;2860;54.284;10.158;2023-02-28T09:21:26;4.70;99.90
5675;DHT22;2860;54.284;10.158;2023-02-28T09:23:51;4.80;99.90
5675;DHT22;2860;54.284;10.158;2023-02-28T09:26:23;4.90;99.90
5675;DHT22;2860;54.284;10.158;2023-02-28T09:28:49;4.90;99.90
5675;DHT22;2860;54.284;10.158;2023-02-28T09:31:21;5.00;99.90
5675;DHT22;2860;54.284;10.158;2023-02-28T09:33:48;5.20;99.90
5675;DHT22;2860;54.284;10.158;2023-02-28T09:36:14;5.30;99.90
5675;DHT22;2860;54.284;10.158;2023-02-28T09:38:39;5.40;99.90
5675;DHT22;2860;54.284;10.158;2023-02-28T09:41:13;5.40;99.90
5675;DHT22;2860;54.284;10.158;2023-02-28T09:43:43;5.50;99.90
5675;DHT22;2860;54.284;10.158;2023-02-28T09:46:25;5.70;99.90
5675;DHT22;2860;54.284;10.158;2023-02-28T09:48:52;5.80;99.90
5675;DHT22;2860;54.284;10.158;2023-02-28T09:54:03;5.90;99.90
5675;DHT22;2860;54.284;10.158;2023-02-28T09:56:36;6.00;99.90
5675;DHT22;2860;54.284;10.158;2023-02-28T10:01:55;6.20;99.90
5675;DHT22;2860;54.284;10.158;2023-02-28T10:04:34;6.20;99.90
5675;DHT22;2860;54.284;10.158;2023-02-28T10:07:03;6.30;99.90
5675;DHT22;2860;54.284;10.158;2023-02-28T10:09:33;6.40;99.90
5675;DHT22;2860;54.284;10.158;2023-02-28T10:12:04;6.50;99.90
5675;DHT22;2860;54.284;10.158;2023-02-28T10:14:32;6.60;99.90
5675;DHT22;2860;54.284;10.158;2023-02-28T10:17:03;6.80;99.90
5675;DHT22;2860;54.284;10.158;2023-02-28T10:22:50;6.90;99.90
5675;DHT22;2860;54.284;10.158;2023-02-28T10:25:28;6.90;99.90
5675;DHT22;2860;54.284;10.158;2023-02-28T10:30:32;7.00;99.90
5675;DHT22;2860;54.284;10.158;2023-02-28T10:32:58;7.00;99.90
5675;DHT22;2860;54.284;10.158;2023-02-28T10:35:25;7.00;99.90
5675;DHT22;2860;54.284;10.158;2023-02-28T10:37:58;7.00;99.90
5675;DHT22;2860;54.284;10.158;2023-02-28T10:45:33;7.30;99.90
5675;DHT22;2860;54.284;10.158;2023-02-28T10:56:20;7.30;99.90
5675;DHT22;2860;54.284;10.158;2023-02-28T11:03:58;7.50;99.90
5675;DHT22;2860;54.284;10.158;2023-02-28T11:06:33;7.60;99.90
5675;DHT22;2860;54.284;10.158;2023-02-28T11:09:27;7.80;99.90
5675;DHT22;2860;54.284;10.158;2023-02-28T11:11:54;8.00;99.90
5675;DHT22;2860;54.284;10.158;2023-02-28T11:14:28;7.80;99.90
5675;DHT22;2860;54.284;10.158;2023-02-28T11:16:58;7.80;99.90
5675;DHT22;2860;54.284;10.158;2023-02-28T11:19:40;7.80;99.90
5675;DHT22;2860;54.284;10.158;2023-02-28T11:22:06;7.90;99.90
5675;DHT22;2860;54.284;10.158;2023-02-28T11:24:36;8.00;99.90
5675;DHT22;2860;54.284;10.158;2023-02-28T11:27:03;8.00;99.90
5675;DHT22;2860;54.284;10.158;2023-02-28T11:29:31;8.00;99.90
5675;DHT22;2860;54.284;10.158;2023-02-28T11:34:37;8.20;99.90
5675;DHT22;2860;54.284;10.158;2023-02-28T11:37:03;8.30;99.90
5675;DHT22;2860;54.284;10.158;2023-02-28T11:39:32;8.40;99.90
5675;DHT22;2860;54.284;10.158;2023-02-28T11:42:23;8.40;99.90
5675;DHT22;2860;54.284;10.158;2023-02-28T11:45:27;8.30;99.90
5675;DHT22;2860;54.284;10.158;2023-02-28T11:48:04;8.10;99.90
5675;DHT22;2860;54.284;10.158;2023-02-28T11:53:22;8.20;99.90
5675;DHT22;2860;54.284;10.158;2023-02-28T11:56:10;8.20;99.90
5675;DHT22;2860;54.284;10.158;2023-02-28T11:58:55;8.40;99.90
5675;DHT22;2860;54.284;10.158;2023-02-28T12:07:22;8.90;99.90
5675;DHT22;2860;54.284;10.158;2023-02-28T12:24:01;8.70;99.90
5675;DHT22;2860;54.284;10.158;2023-02-28T12:26:43;8.60;99.90
5675;DHT22;2860;54.284;10.158;2023-02-28T12:29:28;8.70;99.90
5675;DHT22;2860;54.284;10.158;2023-02-28T12:32:18;8.70;99.90
5675;DHT22;2860;54.284;10.158;2023-02-28T12:34:52;8.80;99.90
5675;DHT22;2860;54.284;10.158;2023-02-28T12:38:01;8.80;99.90
5675;DHT22;2860;54.284;10.158;2023-02-28T12:40:23;8.80;99.90
5675;DHT22;2860;54.284;10.158;2023-02-28T12:42:58;8.80;99.90
5675;DHT22;2860;54.284;10.158;2023-02-28T12:45:26;8.70;99.90
5675;DHT22;2860;54.284;10.158;2023-02-28T12:47:57;8.50;99.90
5675;DHT22;2860;54.284;10.158;2023-02-28T12:50:24;8.60;99.90
5675;DHT22;2860;54.284;10.158;2023-02-28T12:52:58;8.60;99.90
5675;DHT22;2860;54.284;10.158;2023-02-28T12:58:38;8.70;99.90
5675;DHT22;2860;54.284;10.158;2023-02-28T13:07:08;8.90;99.90
5675;DHT22;2860;54.284;10.158;2023-02-28T13:09:35;9.00;99.90
5675;DHT22;2860;54.284;10.158;2023-02-28T13:12:13;9.10;99.90
5675;DHT22;2860;54.284;10.158;2023-02-28T13:14:39;8.80;99.90
5675;DHT22;2860;54.284;10.158;2023-02-28T13:19:44;8.80;99.90
5675;DHT22;2860;54.284;10.158;2023-02-28T13:22:42;8.70;99.90
5675;DHT22;2860;54.284;10.158;2023-02-28T13:27:47;8.70;99.90
5675;DHT22;2860;54.284;10.158;2023-02-28T13:36:08;8.80;99.90
5675;DHT22;2860;54.284;10.158;2023-02-28T13:38:39;8.80;99.90
5675;DHT22;2860;54.284;10.158;2023-02-28T13:44:07;8.90;99.90
5675;DHT22;2860;54.284;10.158;2023-02-28T13:46:36;8.80;99.90
5675;DHT22;2860;54.284;10.158;2023-02-28T13:49:26;8.90;99.90
5675;DHT22;2860;54.284;10.158;2023-02-28T13:57:09;8.70;99.90
5675;DHT22;2860;54.284;10.158;2023-02-28T13:59:50;8.80;99.90
5675;DHT22;2860;54.284;10.158;2023-02-28T14:04:59;8.80;99.90
5675;DHT22;2860;54.284;10.158;2023-02-28T14:07:37;8.80;99.90
5675;DHT22;2860;54.284;10.158;2023-02-28T14:10:07;8.80;99.90
5675;DHT22;2860;54.284;10.158;2023-02-28T14:17:53;8.70;99.90
5675;DHT22;2860;54.284;10.158;2023-02-28T14:20:20;8.70;99.90
5675;DHT22;2860;54.284;10.158;2023-02-28T14:23:47;8.70;99.90
5675;DHT22;2860;54.284;10.158;2023-02-28T14:26:01;8.70;99.90
5675;DHT22;2860;54.284;10.158;2023-02-28T14:34:24;8.30;99.90
5675;DHT22;2860;54.284;10.158;2023-02-28T14:36:52;8.20;99.90
5675;DHT22;2860;54.284;10.158;2023-02-28T14:39:22;8.10;99.90
5675;DHT22;2860;54.284;10.158;2023-02-28T14:41:49;8.10;99.90
5675;DHT22;2860;54.284;10.158;2023-02-28T14:44:23;8.10;99.90
5675;DHT22;2860;54.284;10.158;2023-02-28T14:46:54;8.10;99.90
5675;DHT22;2860;54.284;10.158;2023-02-28T14:49:28;8.00;99.90
5675;DHT22;2860;54.284;10.158;2023-02-28T14:54:29;7.90;99.90
5675;DHT22;2860;54.284;10.158;2023-02-28T14:56:54;7.90;99.90
5675;DHT22;2860;54.284;10.158;2023-02-28T14:59:29;7.80;99.90
5675;DHT22;2860;54.284;10.158;2023-02-28T15:02:22;7.80;99.90
5675;DHT22;2860;54.284;10.158;2023-02-28T15:04:57;7.70;99.90
5675;DHT22;2860;54.284;10.158;2023-02-28T15:07:23;7.70;99.90
5675;DHT22;2860;54.284;10.158;2023-02-28T15:12:52;7.60;99.90
5675;DHT22;2860;54.284;10.158;2023-02-28T15:15:19;7.50;99.90
5675;DHT22;2860;54.284;10.158;2023-02-28T15:17:49;7.40;99.90
5675;DHT22;2860;54.284;10.158;2023-02-28T15:20:16;7.40;99.90
5675;DHT22;2860;54.284;10.158;2023-02-28T15:22:43;7.30;99.90
5675;DHT22;2860;54.284;10.158;2023-02-28T15:25:14;7.20;99.90
5675;DHT22;2860;54.284;10.158;2023-02-28T15:27:46;7.10;99.90
5675;DHT22;2860;54.284;10.158;2023-02-28T15:30:25;7.00;99.90
5675;DHT22;2860;54.284;10.158;2023-02-28T15:33:20;6.90;99.90
5675;DHT22;2860;54.284;10.158;2023-02-28T15:35:46;6.80;99.90
5675;DHT22;2860;54.284;10.158;2023-02-28T15:38:26;6.70;99.90
5675;DHT22;2860;54.284;10.158;2023-02-28T15:40:54;6.60;99.90
5675;DHT22;2860;54.284;10.158;2023-02-28T15:43:33;6.50;99.90
5675;DHT22;2860;54.284;10.158;2023-02-28T15:46:06;6.50;99.90
5675;DHT22;2860;54.284;10.158;2023-02-28T15:48:37;6.40;99.90
5675;DHT22;2860;54.284;10.158;2023-02-28T15:51:29;6.30;99.90
5675;DHT22;2860;54.284;10.158;2023-02-28T15:53:59;6.20;99.90
5675;DHT22;2860;54.284;10.158;2023-02-28T15:56:30;6.20;99.90
5675;DHT22;2860;54.284;10.158;2023-02-28T15:59:06;6.10;99.90
5675;DHT22;2860;54.284;10.158;2023-02-28T16:01:37;6.10;99.90
5675;DHT22;2860;54.284;10.158;2023-02-28T16:04:12;6.00;99.90
5675;DHT22;2860;54.284;10.158;2023-02-28T16:09:15;5.90;99.90
5675;DHT22;2860;54.284;10.158;2023-02-28T16:11:47;5.70;99.90
5675;DHT22;2860;54.284;10.158;2023-02-28T16:14:24;5.60;99.90
5675;DHT22;2860;54.284;10.158;2023-02-28T16:16:54;5.50;99.90
5675;DHT22;2860;54.284;10.158;2023-02-28T16:19:21;5.40;99.90
5675;DHT22;2860;54.284;10.158;2023-02-28T16:21:47;5.30;99.90
5675;DHT22;2860;54.284;10.158;2023-02-28T16:24:13;5.30;99.90
5675;DHT22;2860;54.284;10.158;2023-02-28T16:26:40;5.20;99.90
5675;DHT22;2860;54.284;10.158;2023-02-28T16:29:06;5.10;99.90
5675;DHT22;2860;54.284;10.158;2023-02-28T16:31:36;5.10;99.90
5675;DHT22;2860;54.284;10.158;2023-02-28T16:34:02;5.00;99.90
5675;DHT22;2860;54.284;10.158;2023-02-28T16:36:29;4.90;99.90
5675;DHT22;2860;54.284;10.158;2023-02-28T16:38:55;4.90;99.90
5675;DHT22;2860;54.284;10.158;2023-02-28T16:41:23;4.80;99.90
5675;DHT22;2860;54.284;10.158;2023-02-28T16:43:52;4.70;99.90
5675;DHT22;2860;54.284;10.158;2023-02-28T16:46:19;4.60;99.90
5675;DHT22;2860;54.284;10.158;2023-02-28T16:48:45;4.50;99.90
5675;DHT22;2860;54.284;10.158;2023-02-28T16:51:15;4.40;99.90
5675;DHT22;2860;54.284;10.158;2023-02-28T16:53:41;4.30;99.90
5675;DHT22;2860;54.284;10.158;2023-02-28T16:56:18;4.20;99.90
5675;DHT22;2860;54.284;10.158;2023-02-28T16:58:44;4.10;99.90
5675;DHT22;2860;54.284;10.158;2023-02-28T17:01:10;4.10;99.90
5675;DHT22;2860;54.284;10.158;2023-02-28T17:03:36;4.00;99.90
5675;DHT22;2860;54.284;10.158;2023-02-28T17:06:02;3.90;99.90
5675;DHT22;2860;54.284;10.158;2023-02-28T17:08:29;3.80;99.90
5675;DHT22;2860;54.284;10.158;2023-02-28T17:10:55;3.70;99.90
5675;DHT22;2860;54.284;10.158;2023-02-28T17:13:20;3.60;99.90
5675;DHT22;2860;54.284;10.158;2023-02-28T17:15:46;3.50;99.90
5675;DHT22;2860;54.284;10.158;2023-02-28T17:18:15;3.50;99.90
5675;DHT22;2860;54.284;10.158;2023-02-28T17:20:44;3.40;99.90
5675;DHT22;2860;54.284;10.158;2023-02-28T17:23:10;3.30;99.90
5675;DHT22;2860;54.284;10.158;2023-02-28T17:25:35;3.20;99.90
5675;DHT22;2860;54.284;10.158;2023-02-28T17:28:01;3.20;99.90
5675;DHT22;2860;54.284;10.158;2023-02-28T17:30:27;3.10;99.90
5675;DHT22;2860;54.284;10.158;2023-02-28T17:32:53;3.10;99.90
5675;DHT22;2860;54.284;10.158;2023-02-28T17:35:19;3.00;99.90
5675;DHT22;2860;54.284;10.158;2023-02-28T17:37:45;3.00;99.90
5675;DHT22;2860;54.284;10.158;2023-02-28T17:40:20;2.90;99.90
5675;DHT22;2860;54.284;10.158;2023-02-28T17:42:46;2.80;99.90
5675;DHT22;2860;54.284;10.158;2023-02-28T17:45:13;2.70;99.90
5675;DHT22;2860;54.284;10.158;2023-02-28T17:47:39;2.60;99.90
5675;DHT22;2860;54.284;10.158;2023-02-28T17:50:06;2.50;99.90
5675;DHT22;2860;54.284;10.158;2023-02-28T17:52:31;2.50;99.90
5675;DHT22;2860;54.284;10.158;2023-02-28T17:55:02;2.40;99.90
5675;DHT22;2860;54.284;10.158;2023-02-28T17:57:28;2.40;99.90
5675;DHT22;2860;54.284;10.158;2023-02-28T17:59:53;2.30;99.90
5675;DHT22;2860;54.284;10.158;2023-02-28T18:02:19;2.30;99.90
5675;DHT22;2860;54.284;10.158;2023-02-28T18:04:44;2.20;99.90
5675;DHT22;2860;54.284;10.158;2023-02-28T18:07:11;2.10;99.90
5675;DHT22;2860;54.284;10.158;2023-02-28T18:09:37;2.10;99.90
5675;DHT22;2860;54.284;10.158;2023-02-28T18:12:03;2.00;99.90
5675;DHT22;2860;54.284;10.158;2023-02-28T18:14:28;2.00;99.90
5675;DHT22;2860;54.284;10.158;2023-02-28T18:16:55;1.90;99.90
5675;DHT22;2860;54.284;10.158;2023-02-28T18:19:21;1.90;99.90
5675;DHT22;2860;54.284;10.158;2023-02-28T18:21:49;1.80;99.90
5675;DHT22;2860;54.284;10.158;2023-02-28T18:24:16;1.70;99.90